Main page
METAR-TAF:

METAR-TAF

Airports :

Gatwick Airport

London-Gatwick, England

latitude: 51-09N, longitude: 000-11W, elevation: 62 m

Current weather observation

The report was made 34 minutes ago, at 07:20 UTC
Wind 2 kt from variable directions
Temperature 2°C
Humidity 93%
Pressure 1031 hPa
Visibility 10 km or more
no clouds below 1500 m and no cumulonimbus

METAR: EGKK 240720Z VRB02KT CAVOK 02/01 Q1031

Time: 07:54 (07:54 UTC)

Forecast

The report was made 2 hours and 52 minutes ago, at 05:02 UTC
Forecast valid from 24 at 06 UTC to 25 at 12 UTC
Wind 3 kt from variable directions
Visibility: 9000 m
Few clouds at a height of 4000 ft
Becoming
from 24 at 06 UTC to 24 at 08 UTC
Visibility 10 km or more
Becoming
from 24 at 08 UTC to 24 at 11 UTC
Wind 10 kt from the Northwest
Probability 30% :
Temporary
from 25 at 03 UTC to 25 at 06 UTC
Visibility: 8000 m
light rain showers

TAF: EGKK 240502Z 2406/2512 VRB03KT 9000 FEW040 BECMG 2406/2408 9999 BECMG 2408/2411 32010KT PROB30 TEMPO 2503/2506 8000 -SHRA

Weather observations and forecasts of more than 4000 airports (METAR and TAF reports).

The available stations are represented by yellow and red dots on the map.

Hover mouse over dot to see the name of the station.

Then click to see weather observations and forecasts.

To change the map : click on the green buttons with a black cross to zoom in, on the green button with a dash to zoom out, or on the green arrows for adjacent maps.


METAR-TAF: